LIRF/FCO METAR and TAF weather

Enter ICAO airport designator
Station Type Date Time Source
LIRF METAR 2019/10/15 18:20 UTC NOAA

LIRF 151820Z 13010KT 9999 -TSRA FEW020CB SCT045 21/16 Q1014 NOSIG


Station Type Date Time Source
LIRF Decoded METAR 2019/10/15 18:20 UTC NOAA

Roma Fiumicino, Italy (LIRF) 41-48N 012-14E 3M
Oct 15, 2019 - 02:20 PM EDT / 2019.10.15 1820 UTC
Wind: from the SE (130 degrees) at 12 MPH (10 KT):0
Visibility: greater than 7 mile(s):0
Sky conditions: partly cloudy
Weather: light rain with thunder; Cumulonimbus clouds observed
Temperature: 69 F (21 C)
Dew Point: 60 F (16 C)
Relative Humidity: 73%
Pressure (altimeter): 29.94 in. Hg (1014 hPa)
ob: LIRF 151820Z 13010KT 9999 -TSRA FEW020CB SCT045 21/16 Q1014 NOSIG
cycle: 18

Station Type Date Time Source
LIRF TAF 2019/10/15 18:21 UTC NOAA

TAF LIRF 151700Z 1518/1624 13014KT 9999 SCT025 BKN050
TEMPO 1518/1521 3000 TSRA
BECMG 1521/1523 24008KT

Example: see airport list